createdAt,value
2019-05-21T00:00:31.899Z,22.83
2019-05-21T00:05:54.825Z,23.80
2019-05-21T00:11:18.276Z,31.07
2019-05-21T00:16:41.574Z,24.43
2019-05-21T00:22:05.090Z,27.30
2019-05-21T00:27:28.510Z,24.50
2019-05-21T00:33:28.164Z,27.73
2019-05-21T00:39:27.511Z,23.97
2019-05-21T00:44:51.056Z,24.77
2019-05-21T00:50:15.004Z,23.70
2019-05-21T00:55:37.980Z,22.53
2019-05-21T01:01:01.477Z,23.20
2019-05-21T01:06:24.947Z,24.73
2019-05-21T01:11:48.135Z,24.30
2019-05-21T01:17:11.269Z,23.20
2019-05-21T01:22:34.778Z,22.00
2019-05-21T01:27:58.336Z,21.73
2019-05-21T01:33:21.515Z,28.37
2019-05-21T01:38:45.316Z,24.77
2019-05-21T01:44:08.043Z,19.63
2019-05-21T01:49:31.316Z,19.47
2019-05-21T01:54:54.471Z,19.63
2019-05-21T02:00:18.107Z,20.20
2019-05-21T02:05:41.463Z,17.90
2019-05-21T02:11:05.273Z,16.47
2019-05-21T02:16:28.513Z,17.17
2019-05-21T02:21:51.851Z,19.20
2019-05-21T02:27:15.473Z,18.60
2019-05-21T02:32:39.158Z,19.23
2019-05-21T02:38:02.212Z,18.23
2019-05-21T02:43:25.264Z,14.77
2019-05-21T02:48:48.905Z,18.77
2019-05-21T02:54:12.205Z,17.07
2019-05-21T02:59:35.751Z,17.10
2019-05-21T03:04:58.959Z,19.63
2019-05-21T03:10:22.088Z,18.87
2019-05-21T03:15:45.228Z,20.43
2019-05-21T03:21:09.074Z,24.07
2019-05-21T03:26:32.202Z,20.63
2019-05-21T03:31:55.332Z,22.83
2019-05-21T03:37:18.900Z,19.07
2019-05-21T03:42:41.978Z,20.00
2019-05-21T03:48:05.367Z,20.60
2019-05-21T03:53:28.615Z,24.20
2019-05-21T03:58:52.304Z,33.73
2019-05-21T04:04:15.480Z,22.50
2019-05-21T04:09:38.932Z,22.33
2019-05-21T04:15:19.643Z,19.30
2019-05-21T04:20:42.435Z,61.70
2019-05-21T04:26:05.651Z,22.20
2019-05-21T04:31:28.900Z,28.23
2019-05-21T04:37:09.282Z,22.47
2019-05-21T04:42:16.751Z,22.93
2019-05-21T04:47:40.162Z,46.97
2019-05-21T04:53:03.809Z,21.97
2019-05-21T04:58:27.479Z,31.33
2019-05-21T05:03:50.206Z,22.07
2019-05-21T05:09:13.543Z,21.50
2019-05-21T05:14:36.743Z,25.83
2019-05-21T05:20:00.245Z,34.37
2019-05-21T05:25:23.595Z,20.53
2019-05-21T05:30:46.977Z,21.87
2019-05-21T05:36:09.934Z,23.30
2019-05-21T05:41:33.493Z,19.50
2019-05-21T05:46:57.152Z,20.87
2019-05-21T05:52:20.328Z,19.67
2019-05-21T05:57:43.643Z,21.43
2019-05-21T06:03:07.313Z,31.43
2019-05-21T06:08:30.830Z,24.27
2019-05-21T06:13:53.684Z,17.93
2019-05-21T06:19:16.902Z,18.97
2019-05-21T06:24:40.469Z,17.13
2019-05-21T06:30:05.825Z,21.07
2019-05-21T06:35:29.634Z,18.90
2019-05-21T06:40:53.017Z,19.73
2019-05-21T06:46:16.107Z,17.37
2019-05-21T06:51:39.784Z,15.83
2019-05-21T19:13:27.259Z,7.37
2019-05-21T19:18:49.918Z,6.23
2019-05-21T19:23:54.777Z,9.40
2019-05-21T19:28:59.695Z,9.37
2019-05-21T19:34:04.895Z,9.83
2019-05-21T19:39:10.041Z,10.10
2019-05-21T19:44:15.043Z,12.83
2019-05-21T19:49:19.987Z,12.43
2019-05-21T19:54:24.934Z,16.07
2019-05-21T19:59:30.063Z,11.53
2019-05-21T20:04:35.343Z,12.20
2019-05-21T20:09:42.052Z,14.93
2019-05-21T20:14:47.768Z,16.33
2019-05-21T20:19:53.179Z,15.60
2019-05-21T20:24:58.062Z,11.83
2019-05-21T20:30:12.094Z,12.23
2019-05-21T20:35:12.260Z,12.53
2019-05-21T20:40:17.361Z,10.78
2019-05-21T20:45:22.428Z,10.00
2019-05-21T20:50:27.752Z,8.77
2019-05-21T20:55:32.812Z,8.97
2019-05-21T21:00:40.114Z,7.40
2019-05-21T21:05:45.303Z,6.93
2019-05-21T21:10:50.356Z,5.83
2019-05-21T21:15:55.443Z,5.53
2019-05-21T21:21:01.270Z,5.80
2019-05-21T21:26:06.782Z,6.37
2019-05-21T21:31:11.742Z,5.33
2019-05-21T21:36:17.014Z,6.15
2019-05-21T21:41:22.377Z,7.40
2019-05-21T21:46:27.331Z,6.63
2019-05-21T21:51:32.665Z,6.70
2019-05-21T21:56:37.562Z,5.90
2019-05-21T22:01:51.204Z,7.40
2019-05-21T22:06:56.591Z,6.67
2019-05-21T22:12:03.661Z,7.22
2019-05-21T22:17:10.449Z,7.00
2019-05-21T22:22:16.261Z,9.48
2019-05-21T22:27:22.079Z,7.90
2019-05-21T22:32:27.114Z,10.13
2019-05-21T22:37:32.149Z,8.77
2019-05-21T22:42:37.043Z,15.30
2019-05-21T22:47:42.008Z,15.10
2019-05-21T22:52:46.867Z,16.57
2019-05-21T22:57:51.782Z,19.27
2019-05-21T23:02:58.889Z,18.93
2019-05-21T23:08:05.413Z,20.87
2019-05-21T23:13:10.298Z,26.90
2019-05-21T23:18:15.716Z,25.97
2019-05-21T23:23:20.592Z,30.32
2019-05-21T23:28:26.409Z,32.27
2019-05-21T23:33:31.813Z,36.33
2019-05-21T23:38:37.837Z,37.40
2019-05-21T23:43:42.761Z,39.03
2019-05-21T23:48:48.709Z,41.47
2019-05-21T23:53:54.556Z,44.00
2019-05-21T23:59:00.053Z,52.43
